Phoenix, Arizona
Traffic Map
Current Weather Conditions
Phoenix, Arizona
Few Clouds
Few Clouds
29°
Feels Like: 29°
Wind Chill: 29° Ceiling: Unl
Heat Index: 29° Visibility: 10mi
Dew Point: -12° Wind: 3mph
Humidity: 6% Direction: ° ()
Pressure: 29.75in Gusts: 0mph
Raw Report DataKPHX 161851Z VRB03KT 10SM FEW250 29/M12 A2975 RMK AO2 SLP059 T02891122
Traffic Incident Summary
Active as of:
Severity:
Category:
InformationThere was an issue retrieving the traffic information for this location. Please try a different location or try again shortly.
Advertisements
At Last! Intellicast now available for iPhone and Android